createdAt,value
2018-07-02T00:00:33.814Z,19.11
2018-07-02T00:01:47.985Z,19.17
2018-07-02T00:03:02.997Z,19.15
2018-07-02T00:04:18.209Z,19.12
2018-07-02T00:05:32.761Z,19.08
2018-07-02T00:06:47.779Z,19.09
2018-07-02T00:08:02.606Z,19.01
2018-07-02T00:09:17.040Z,19.07
2018-07-02T00:10:31.130Z,18.97
2018-07-02T00:11:45.711Z,18.92
2018-07-02T00:13:00.891Z,19
2018-07-02T00:14:16.476Z,18.88
2018-07-02T00:15:31.317Z,18.92
2018-07-02T00:16:45.907Z,18.91
2018-07-02T00:18:01.714Z,18.86
2018-07-02T00:19:18.161Z,18.83
2018-07-02T00:20:33.081Z,18.76
2018-07-02T00:21:47.141Z,18.79
2018-07-02T00:23:01.730Z,18.78
2018-07-02T00:24:16.638Z,18.79
2018-07-02T00:25:30.605Z,18.7
2018-07-02T00:26:45.063Z,18.68
2018-07-02T00:27:59.634Z,18.7
2018-07-02T00:29:14.619Z,18.67
2018-07-02T00:30:29.134Z,18.67
2018-07-02T00:31:43.908Z,18.66
2018-07-02T00:32:59.144Z,18.53
2018-07-02T00:34:13.904Z,18.66
2018-07-02T00:35:29.604Z,18.67
2018-07-02T00:36:45.242Z,18.55
2018-07-02T00:38:00.254Z,18.63
2018-07-02T00:39:15.306Z,18.6
2018-07-02T00:40:31.609Z,18.67
2018-07-02T00:41:47.157Z,18.63
2018-07-02T00:43:02.041Z,18.51
2018-07-02T00:44:16.457Z,18.67
2018-07-02T00:45:30.557Z,18.64
2018-07-02T00:46:45.702Z,18.58
2018-07-02T00:48:00.473Z,18.55
2018-07-02T00:49:16.427Z,18.53
2018-07-02T00:50:32.470Z,18.45
2018-07-02T00:51:48.544Z,18.43
2018-07-02T00:53:04.972Z,18.37
2018-07-02T00:54:20.529Z,18.45
2018-07-02T00:55:34.750Z,18.42
2018-07-02T00:56:49.143Z,18.45
2018-07-02T00:58:03.879Z,18.37
2018-07-02T00:59:18.804Z,18.37
2018-07-02T01:00:34.349Z,18.36
2018-07-02T01:01:50.895Z,18.34
2018-07-02T01:03:05.720Z,18.36
2018-07-02T01:04:21.800Z,18.39
2018-07-02T01:05:36.637Z,18.39
2018-07-02T01:06:51.289Z,18.36
2018-07-02T01:08:06.895Z,18.27
2018-07-02T01:09:21.964Z,18.28
2018-07-02T01:10:37.371Z,18.3
2018-07-02T01:11:53.365Z,18.24
2018-07-02T01:13:10.295Z,18.19
2018-07-02T01:14:25.327Z,18.26
2018-07-02T01:15:40.059Z,18.19
2018-07-02T01:16:54.790Z,18.15
2018-07-02T01:18:09.121Z,18.09
2018-07-02T01:19:23.976Z,18.06
2018-07-02T01:20:41.200Z,18.06
2018-07-02T01:21:56.713Z,18.09
2018-07-02T01:23:13.353Z,18.02
2018-07-02T01:24:29.258Z,18.06
2018-07-02T01:25:43.888Z,18.08
2018-07-02T01:26:58.993Z,18.03
2018-07-02T01:28:13.528Z,18
2018-07-02T01:29:29.208Z,17.94
2018-07-02T01:30:43.085Z,17.91
2018-07-02T01:31:58.738Z,17.98
2018-07-02T01:33:13.567Z,17.95
2018-07-02T01:34:29.504Z,17.97
2018-07-02T01:35:43.802Z,17.93
2018-07-02T01:36:58.380Z,17.95
2018-07-02T01:38:13.298Z,17.88
2018-07-02T01:39:28.340Z,17.87
2018-07-02T01:40:48.969Z,17.97
2018-07-02T01:42:03.895Z,17.94
2018-07-02T01:43:19.088Z,17.91
2018-07-02T01:44:34.205Z,17.93
2018-07-02T01:45:49.178Z,17.9
2018-07-02T01:47:04.845Z,17.88
2018-07-02T01:48:20.104Z,17.86
2018-07-02T01:49:36.593Z,17.87
2018-07-02T01:50:51.208Z,17.87
2018-07-02T01:52:05.415Z,17.9
2018-07-02T01:53:19.772Z,17.9
2018-07-02T01:54:34.630Z,17.9
2018-07-02T01:55:48.716Z,17.8
2018-07-02T01:57:06.248Z,17.8
2018-07-02T01:58:22.469Z,17.82
2018-07-02T01:59:37.183Z,17.73
2018-07-02T02:00:55.287Z,17.79
2018-07-02T02:02:11.912Z,17.66
2018-07-02T02:03:28.405Z,17.71
2018-07-02T02:04:44.466Z,17.68
2018-07-02T02:05:59.441Z,17.76
2018-07-02T02:07:13.739Z,17.63
2018-07-02T02:08:28.831Z,17.65
2018-07-02T02:09:43.268Z,17.72
2018-07-02T02:10:58.051Z,17.69
2018-07-02T02:12:12.388Z,17.63
2018-07-02T02:13:27.017Z,17.56
2018-07-02T02:14:41.594Z,17.57
2018-07-02T02:15:55.789Z,17.47
2018-07-02T02:17:10.099Z,17.47
2018-07-02T02:18:25.787Z,17.53
2018-07-02T02:19:42.211Z,17.41
2018-07-02T02:20:56.838Z,17.38
2018-07-02T02:22:12.155Z,17.44
2018-07-02T02:23:28.542Z,17.47
2018-07-02T02:24:45.912Z,17.46
2018-07-02T02:26:01.614Z,17.52
2018-07-02T02:27:16.259Z,17.49
2018-07-02T02:28:31.930Z,17.49
2018-07-02T02:29:47.281Z,17.41
2018-07-02T02:31:02.500Z,17.46
2018-07-02T02:32:16.624Z,17.47
2018-07-02T02:33:31.429Z,17.37
2018-07-02T02:34:46.651Z,17.38
2018-07-02T02:36:01.526Z,17.38
2018-07-02T02:37:15.896Z,17.34
2018-07-02T02:38:30.636Z,17.28
2018-07-02T02:39:45.171Z,17.39
2018-07-02T02:40:59.557Z,17.35
2018-07-02T02:42:13.366Z,17.34
2018-07-02T02:43:28.395Z,17.42
2018-07-02T02:44:43.470Z,17.34
2018-07-02T02:45:58.687Z,17.35
2018-07-02T02:47:14.357Z,17.32
2018-07-02T02:48:29.999Z,17.34
2018-07-02T02:49:46.201Z,17.31
2018-07-02T02:51:01.924Z,17.27
2018-07-02T02:52:17.954Z,17.31
2018-07-02T02:53:32.804Z,17.2
2018-07-02T02:54:47.703Z,17.27
2018-07-02T02:56:02.165Z,17.3
2018-07-02T02:57:16.838Z,17.23
2018-07-02T02:58:30.480Z,17.14
2018-07-02T02:59:44.908Z,17.19
2018-07-02T03:00:59.893Z,17.19
2018-07-02T03:02:15.116Z,17.13
2018-07-02T03:03:30.320Z,17.12
2018-07-02T03:04:44.865Z,17.16
2018-07-02T03:05:59.388Z,17.13
2018-07-02T03:07:13.734Z,17.19
2018-07-02T03:08:28.333Z,17.16
2018-07-02T03:09:44.033Z,17.12
2018-07-02T03:10:59.132Z,17.13
2018-07-02T03:12:14.394Z,17.07
2018-07-02T03:13:29.183Z,17.09
2018-07-02T03:14:45.222Z,17.1
2018-07-02T03:16:01.676Z,17.13
2018-07-02T03:17:19.032Z,17.14
2018-07-02T03:18:34.927Z,17.16
2018-07-02T03:19:48.573Z,17.22
2018-07-02T03:21:03.269Z,17.19
2018-07-02T03:22:18.186Z,17.22
2018-07-02T03:23:32.916Z,17.17
2018-07-02T03:24:47.221Z,17.14
2018-07-02T03:26:01.452Z,17.12
2018-07-02T03:27:16.156Z,17.22
2018-07-02T03:28:30.818Z,17.24
2018-07-02T03:29:46.137Z,17.16
2018-07-02T03:31:00.089Z,17.17
2018-07-02T03:32:14.893Z,17.22
2018-07-02T03:33:29.909Z,17.22
2018-07-02T03:34:46.249Z,17.2
2018-07-02T03:36:01.986Z,17.28
2018-07-02T03:37:19.316Z,17.19
2018-07-02T03:38:35.662Z,17.28
2018-07-02T03:39:52.883Z,17.32
2018-07-02T03:41:07.846Z,17.31
2018-07-02T03:42:22.591Z,17.24
2018-07-02T03:43:37.332Z,17.3
2018-07-02T03:44:52.439Z,17.35
2018-07-02T03:46:07.277Z,17.35
2018-07-02T03:47:21.590Z,17.38
2018-07-02T03:48:35.774Z,17.39
2018-07-02T03:49:50.741Z,17.46
2018-07-02T03:51:05.495Z,17.54
2018-07-02T03:52:20.617Z,17.52
2018-07-02T03:53:36.142Z,17.78
2018-07-02T03:54:52.673Z,17.88
2018-07-02T03:56:07.946Z,18.06
2018-07-02T03:57:25.985Z,18.28
2018-07-02T03:58:42.166Z,18.91
2018-07-02T03:59:57.637Z,20.14
2018-07-02T04:01:13.750Z,22
2018-07-02T04:02:29.228Z,22.86
2018-07-02T04:03:43.721Z,23.7
2018-07-02T04:04:57.836Z,24.38
2018-07-02T04:06:12.734Z,25.21
2018-07-02T04:07:26.925Z,25.48
2018-07-02T04:08:41.816Z,26.23
2018-07-02T04:09:56.355Z,26.48
2018-07-02T04:11:10.269Z,27.1
2018-07-02T04:12:25.080Z,27.19
2018-07-02T04:13:39.643Z,27.11
2018-07-02T04:14:54.639Z,27.6
2018-07-02T04:16:12.139Z,27.81
2018-07-02T04:17:26.754Z,27.82
2018-07-02T04:18:42.632Z,27.68
2018-07-02T04:19:58.102Z,28.06
2018-07-02T04:21:12.515Z,28.18
2018-07-02T04:22:28.461Z,28.68
2018-07-02T04:23:43.592Z,28.93
2018-07-02T04:25:00.764Z,29.65
2018-07-02T04:26:16.297Z,29.59
2018-07-02T04:27:30.872Z,30.08
2018-07-02T04:28:45.647Z,30.35
2018-07-02T04:29:59.680Z,30.44
2018-07-02T04:31:15.621Z,30.43
2018-07-02T04:32:32.513Z,30.61
2018-07-02T04:33:49.088Z,31.1
2018-07-02T04:35:04.255Z,30.99
2018-07-02T04:36:20.078Z,31.22
2018-07-02T04:37:35.898Z,31.57
2018-07-02T04:38:51.188Z,31.72
2018-07-02T04:40:06.736Z,31.6
2018-07-02T04:41:22.549Z,32.08
2018-07-02T04:42:40.585Z,32.29
2018-07-02T04:43:58.843Z,32.26
2018-07-02T04:45:16.197Z,31.55
2018-07-02T04:46:31.817Z,31.44
2018-07-02T04:47:47.400Z,31.41
2018-07-02T04:49:04.314Z,31.97
2018-07-02T04:50:21.073Z,32.41
2018-07-02T04:51:37.350Z,33.04
2018-07-02T04:52:54.295Z,32.75
2018-07-02T04:54:12.302Z,33.54
2018-07-02T04:55:30.651Z,34.03
2018-07-02T04:56:48.421Z,34.26
2018-07-02T04:58:04.620Z,33.82
2018-07-02T04:59:19.697Z,33.2
2018-07-02T05:00:36.357Z,32.24
2018-07-02T05:01:50.883Z,32.17
2018-07-02T05:03:05.691Z,31.51
2018-07-02T05:04:21.666Z,31.11
2018-07-02T05:05:36.213Z,31.37
2018-07-02T05:06:50.652Z,31.35
2018-07-02T05:08:06.122Z,31.15
2018-07-02T05:09:20.138Z,31.54
2018-07-02T05:10:34.540Z,31.14
2018-07-02T05:11:48.994Z,30.48
2018-07-02T05:13:03.593Z,30.43
2018-07-02T05:14:31.207Z,29.81
2018-07-02T05:15:46.283Z,29.57
2018-07-02T05:17:00.503Z,29.9
2018-07-02T05:18:15.252Z,30.05
2018-07-02T05:19:29.727Z,30.48
2018-07-02T05:20:43.770Z,30.91
2018-07-02T05:21:57.859Z,30.91
2018-07-02T05:23:12.646Z,30.65
2018-07-02T05:24:27.351Z,30.35
2018-07-02T05:25:42.432Z,30.27
2018-07-02T05:26:56.666Z,30.7
2018-07-02T05:28:11.245Z,30.73
2018-07-02T05:29:24.929Z,30.29
2018-07-02T05:30:39.228Z,29.83
2018-07-02T05:31:53.149Z,30.61
2018-07-02T05:33:07.788Z,31.25
2018-07-02T05:34:22.476Z,31.36
2018-07-02T05:35:37.226Z,31.22
2018-07-02T05:36:51.409Z,31.17
2018-07-02T05:38:06.071Z,30.85
2018-07-02T05:39:20.595Z,30.44
2018-07-02T05:40:35.298Z,30.27
2018-07-02T05:41:49.249Z,30.03
2018-07-02T05:43:03.804Z,29.74
2018-07-02T05:44:18.316Z,28.9
2018-07-02T05:45:32.875Z,27.86
2018-07-02T05:46:47.062Z,26.92
2018-07-02T05:48:01.876Z,25.71
2018-07-02T05:49:16.531Z,25.24
2018-07-02T05:50:30.997Z,24.97
2018-07-02T05:51:45.207Z,24.69
2018-07-02T05:53:00.220Z,24.26
2018-07-02T05:54:14.218Z,23.91
2018-07-02T05:55:29.129Z,23.81
2018-07-02T05:56:43.718Z,23.64
2018-07-02T05:57:58.702Z,23.49
2018-07-02T05:59:13.147Z,23.26
2018-07-02T06:00:29.002Z,23.26
2018-07-02T06:01:44.280Z,23.18
2018-07-02T06:02:58.894Z,23.1
2018-07-02T06:04:13.596Z,23.26
2018-07-02T06:05:28.625Z,22.73
2018-07-02T06:06:43.333Z,22.62
2018-07-02T06:07:58.401Z,22.77
2018-07-02T06:09:12.832Z,22.63
2018-07-02T06:10:27.792Z,22.49
2018-07-02T06:11:42.386Z,22.49
2018-07-02T06:12:57.523Z,22.34
2018-07-02T06:14:11.951Z,22.4
2018-07-02T06:15:26.485Z,22.21
2018-07-02T06:16:40.866Z,22.01
2018-07-02T06:17:56.014Z,22.01
2018-07-02T06:19:10.888Z,22.18
2018-07-02T06:20:25.232Z,22.07
2018-07-02T06:21:40.167Z,22.25
2018-07-02T06:22:54.972Z,22.08
2018-07-02T06:24:09.978Z,21.84
2018-07-02T06:25:24.233Z,21.62
2018-07-02T06:26:38.193Z,21.65
2018-07-02T06:27:52.475Z,21.56
2018-07-02T06:29:06.672Z,21.56
2018-07-02T06:30:21.958Z,21.68
2018-07-02T06:31:37.172Z,21.96
2018-07-02T06:32:51.684Z,22.07
2018-07-02T06:34:06.596Z,22.08
2018-07-02T06:35:21.539Z,22.21
2018-07-02T06:36:36.446Z,21.99
2018-07-02T06:37:52.166Z,21.75
2018-07-02T06:39:06.629Z,21.66
2018-07-02T06:40:20.944Z,21.51
2018-07-02T06:41:35.622Z,21.83
2018-07-02T06:42:51.620Z,21.74
2018-07-02T06:44:07.058Z,21.62
2018-07-02T06:45:22.094Z,21.75
2018-07-02T06:46:36.570Z,21.94
2018-07-02T06:47:51.767Z,21.85
2018-07-02T06:49:07.249Z,22.03
2018-07-02T06:50:22.425Z,21.88
2018-07-02T06:51:38.443Z,21.99
2018-07-02T06:52:52.959Z,22
2018-07-02T06:54:07.483Z,21.66
2018-07-02T06:55:23.892Z,21.59
2018-07-02T06:56:38.956Z,21.53
2018-07-02T06:57:54.749Z,21.6
2018-07-02T06:59:10.127Z,21.68
2018-07-02T07:00:26.167Z,21.84
2018-07-02T07:01:41.047Z,21.81
2018-07-02T07:02:55.210Z,21.81
2018-07-02T07:04:10.105Z,21.66
2018-07-02T07:05:24.897Z,21.69
2018-07-02T07:06:41.331Z,21.7
2018-07-02T07:07:57.574Z,21.88
2018-07-02T07:09:13.792Z,22.1
2018-07-02T07:10:29.323Z,22.1
2018-07-02T07:11:47.864Z,22.06
2018-07-02T07:13:03.367Z,22.23
2018-07-02T07:14:17.820Z,22.21
2018-07-02T07:15:33.221Z,22.03
2018-07-02T07:16:48.713Z,21.97
2018-07-02T07:18:04.595Z,21.94
2018-07-02T07:19:19.091Z,21.94
2018-07-02T07:20:34.946Z,21.97
2018-07-02T07:21:50.069Z,22.01
2018-07-02T07:23:05.319Z,22.04
2018-07-02T07:24:22.286Z,22.19
2018-07-02T07:25:36.841Z,22.19
2018-07-02T07:26:52.029Z,22.16
2018-07-02T07:28:07.526Z,22.3
2018-07-02T07:29:22.209Z,22.36
2018-07-02T07:30:37.660Z,22.34
2018-07-02T07:31:52.678Z,22.34
2018-07-02T07:33:09.145Z,22.43
2018-07-02T07:34:24.900Z,22.44
2018-07-02T07:35:40.848Z,22.52
2018-07-02T07:36:56.507Z,22.47
2018-07-02T07:38:12.760Z,22.49
2018-07-02T07:39:27.983Z,22.44
2018-07-02T07:40:43.590Z,22.34
2018-07-02T07:41:58.684Z,22.31
2018-07-02T07:43:14.095Z,22.31
2018-07-02T07:44:30.704Z,22.36
2018-07-02T07:45:45.919Z,22.44
2018-07-02T07:47:01.194Z,22.43
2018-07-02T07:48:16.518Z,22.52
2018-07-02T07:49:31.856Z,22.47
2018-07-02T07:50:46.822Z,22.47
2018-07-02T07:52:02.193Z,22.63
2018-07-02T07:53:17.204Z,22.65
2018-07-02T07:54:32.911Z,22.7
2018-07-02T07:55:47.834Z,22.71
2018-07-02T07:57:02.408Z,22.71
2018-07-02T07:58:18.567Z,22.76
2018-07-02T07:59:35.521Z,22.91
2018-07-02T08:00:50.273Z,22.89
2018-07-02T08:02:05.247Z,22.88
2018-07-02T08:03:20.881Z,22.93
2018-07-02T08:04:37.241Z,22.84
2018-07-02T08:05:53.138Z,22.93
2018-07-02T08:07:07.993Z,22.99
2018-07-02T08:08:23.562Z,22.98
2018-07-02T08:09:38.341Z,22.99
2018-07-02T08:10:53.256Z,23.01
2018-07-02T08:12:08.684Z,23.14
2018-07-02T08:13:22.979Z,23.17
2018-07-02T08:14:38.004Z,23.26
2018-07-02T08:15:53.672Z,23.25
2018-07-02T08:17:08.862Z,23.39
2018-07-02T08:18:23.502Z,23.44
2018-07-02T08:19:37.740Z,23.4
2018-07-02T08:20:52.718Z,23.34
2018-07-02T08:22:07.374Z,23.23
2018-07-02T08:23:22.049Z,23.26
2018-07-02T08:24:36.579Z,23.25
2018-07-02T08:25:51.011Z,23.25
2018-07-02T08:27:06.673Z,23.13
2018-07-02T08:28:21.716Z,23.04
2018-07-02T08:29:36.374Z,23.08
2018-07-02T08:30:51.231Z,23.17
2018-07-02T08:32:06.889Z,23.33
2018-07-02T08:33:22.117Z,23.29
2018-07-02T08:34:37.463Z,23.34
2018-07-02T08:35:52.770Z,23.32
2018-07-02T08:37:07.466Z,23.29
2018-07-02T08:38:21.795Z,23.1
2018-07-02T08:39:36.396Z,23.16
2018-07-02T08:40:51.308Z,23.08
2018-07-02T08:42:05.699Z,22.99
2018-07-02T08:43:20.625Z,23.02
2018-07-02T08:44:35.065Z,23.01
2018-07-02T08:45:49.891Z,23.01
2018-07-02T08:47:05.334Z,23.16
2018-07-02T08:48:20.295Z,23.2
2018-07-02T08:49:35.661Z,23.26
2018-07-02T08:50:51.924Z,23.29
2018-07-02T08:52:07.948Z,23.33
2018-07-02T08:53:22.735Z,23.28
2018-07-02T08:54:37.560Z,23.25
2018-07-02T08:55:52.583Z,23.26
2018-07-02T08:57:06.797Z,23.18
2018-07-02T08:58:23.001Z,23.42
2018-07-02T08:59:39.503Z,23.54
2018-07-02T09:00:56.798Z,23.55
2018-07-02T09:02:12.919Z,23.59
2018-07-02T09:03:27.941Z,23.7
2018-07-02T09:04:42.643Z,23.67
2018-07-02T09:05:58.953Z,23.81
2018-07-02T09:07:14.474Z,23.77
2018-07-02T09:08:29.645Z,23.64
2018-07-02T09:09:46.047Z,23.59
2018-07-02T09:11:01.557Z,23.73
2018-07-02T09:12:17.181Z,23.88
2018-07-02T09:13:31.814Z,23.99
2018-07-02T09:14:46.765Z,23.91
2018-07-02T09:16:02.542Z,23.95
2018-07-02T09:17:17.525Z,23.94
2018-07-02T09:18:33.721Z,23.96
2018-07-02T09:19:48.653Z,24.06
2018-07-02T09:21:03.902Z,24.07
2018-07-02T09:22:18.718Z,24.18
2018-07-02T09:23:33.117Z,24.01
2018-07-02T09:24:48.424Z,23.96
2018-07-02T09:26:03.050Z,23.74
2018-07-02T09:27:17.863Z,23.67
2018-07-02T09:28:34.375Z,23.73
2018-07-02T09:29:49.828Z,23.88
2018-07-02T09:31:05.177Z,23.94
2018-07-02T09:32:19.954Z,23.88
2018-07-02T09:33:34.603Z,23.89
2018-07-02T09:34:48.771Z,24.04
2018-07-02T09:36:05.329Z,23.95
2018-07-02T09:37:20.699Z,24.04
2018-07-02T09:38:35.985Z,24.11
2018-07-02T09:39:51.298Z,24.09
2018-07-02T09:41:05.786Z,24.16
2018-07-02T09:42:20.078Z,24.09
2018-07-02T09:43:35.539Z,24.11
2018-07-02T09:44:50.572Z,24.11
2018-07-02T09:46:05.155Z,24.16
2018-07-02T09:47:20.435Z,24.25
2018-07-02T09:48:36.133Z,24.21
2018-07-02T09:49:51.749Z,24.24
2018-07-02T09:51:06.537Z,24.18
2018-07-02T09:52:20.663Z,24.19
2018-07-02T09:53:35.161Z,24.28
2018-07-02T09:54:51.292Z,24.29
2018-07-02T09:56:08.152Z,24.09
2018-07-02T09:57:23.978Z,24.16
2018-07-02T09:58:38.335Z,24.22
2018-07-02T09:59:53.807Z,24.24
2018-07-02T10:01:09.284Z,24.25
2018-07-02T10:02:26.891Z,24.19
2018-07-02T10:03:42.850Z,24.03
2018-07-02T10:04:57.761Z,24.04
2018-07-02T10:06:13.388Z,24.09
2018-07-02T10:07:28.635Z,24
2018-07-02T10:08:43.609Z,24.09
2018-07-02T10:09:58.621Z,23.91
2018-07-02T10:11:13.940Z,23.99
2018-07-02T10:12:28.380Z,24
2018-07-02T10:13:43.686Z,24.11
2018-07-02T10:14:58.698Z,24.1
2018-07-02T10:16:14.361Z,24.13
2018-07-02T10:17:29.328Z,24.11
2018-07-02T10:18:43.882Z,24.1
2018-07-02T10:19:58.864Z,24.11
2018-07-02T10:21:14.638Z,24.18
2018-07-02T10:22:31.314Z,24.18
2018-07-02T10:23:46.427Z,24.31
2018-07-02T10:25:00.750Z,24.24
2018-07-02T10:26:15.656Z,24.19
2018-07-02T10:27:30.672Z,24.31
2018-07-02T10:28:45.846Z,24.36
2018-07-02T10:30:03.467Z,24.41
2018-07-02T10:31:20.732Z,24.4
2018-07-02T10:32:37.236Z,24.48
2018-07-02T10:33:52.949Z,24.53
2018-07-02T10:35:08.440Z,24.61
2018-07-02T10:36:22.830Z,24.69
2018-07-02T10:37:37.398Z,24.69
2018-07-02T10:38:52.243Z,24.68
2018-07-02T10:40:08.772Z,24.55
2018-07-02T10:41:24.184Z,24.5
2018-07-02T10:42:39.337Z,24.44
2018-07-02T10:43:55.425Z,24.47
2018-07-02T10:45:10.481Z,24.65
2018-07-02T10:46:27.994Z,24.81
2018-07-02T10:47:42.759Z,24.84
2018-07-02T10:48:57.932Z,24.92
2018-07-02T10:50:13.653Z,24.82
2018-07-02T10:51:29.212Z,24.82
2018-07-02T10:52:44.408Z,24.71
2018-07-02T10:53:59.627Z,24.78
2018-07-02T10:55:14.683Z,24.79
2018-07-02T10:56:31.156Z,24.79
2018-07-02T10:57:45.850Z,24.82
2018-07-02T10:59:02.405Z,24.86
2018-07-02T11:00:18.067Z,24.65
2018-07-02T11:01:34.412Z,24.69
2018-07-02T11:02:50.456Z,24.59
2018-07-02T11:04:07.684Z,24.56
2018-07-02T11:05:25.006Z,24.74
2018-07-02T11:06:41.222Z,24.74
2018-07-02T11:07:57.721Z,24.82
2018-07-02T11:09:14.733Z,24.84
2018-07-02T11:10:29.432Z,24.85
2018-07-02T11:11:44.680Z,25.09
2018-07-02T11:13:00.488Z,25.09
2018-07-02T11:14:16.497Z,25.01
2018-07-02T11:15:32.896Z,25.11
2018-07-02T11:16:48.851Z,25.21
2018-07-02T11:18:06.603Z,25.21
2018-07-02T11:19:23.367Z,25.16
2018-07-02T11:20:37.814Z,25.11
2018-07-02T11:21:52.654Z,25.07
2018-07-02T11:23:09.347Z,25.01
2018-07-02T11:24:26.868Z,25.01
2018-07-02T11:25:47.071Z,24.93
2018-07-02T11:27:05.862Z,24.85
2018-07-02T11:28:24.436Z,24.84
2018-07-02T11:29:41.045Z,24.82
2018-07-02T11:30:58.531Z,24.92
2018-07-02T11:32:20.800Z,24.97
2018-07-02T11:33:56.047Z,24.86
2018-07-02T11:35:14.833Z,24.85
2018-07-02T11:36:34.553Z,24.89
2018-07-02T11:37:51.813Z,24.96
2018-07-02T11:39:09.102Z,25.06
2018-07-02T11:40:25.463Z,25.09
2018-07-02T11:41:43.555Z,25.16
2018-07-02T11:43:00.794Z,25.16
2018-07-02T11:44:16.281Z,25.26
2018-07-02T11:45:32.222Z,25.26
2018-07-02T11:46:47.527Z,25.29
2018-07-02T11:48:03.624Z,25.31
2018-07-02T11:49:18.589Z,25.31
2018-07-02T11:50:33.622Z,25.36
2018-07-02T11:51:50.010Z,25.48
2018-07-02T11:53:06.083Z,25.36
2018-07-02T11:54:22.761Z,25.33
2018-07-02T11:55:37.719Z,25.54
2018-07-02T11:56:54.895Z,25.41
2018-07-02T11:58:10.642Z,25.31
2018-07-02T11:59:27.025Z,25.29
2018-07-02T12:00:42.472Z,25.33
2018-07-02T12:01:58.696Z,25.33
2018-07-02T12:03:15.587Z,25.43
2018-07-02T12:04:32.881Z,25.59
2018-07-02T12:05:49.398Z,25.66
2018-07-02T12:07:07.120Z,25.68
2018-07-02T12:08:23.618Z,25.66
2018-07-02T12:09:40.286Z,25.63
2018-07-02T12:10:57.304Z,25.62
2018-07-02T12:12:15.175Z,25.66
2018-07-02T12:13:33.505Z,25.51
2018-07-02T12:14:51.755Z,25.68
2018-07-02T12:16:09.271Z,25.67
2018-07-02T12:17:26.015Z,25.59
2018-07-02T12:18:41.325Z,25.63
2018-07-02T12:19:57.995Z,25.55
2018-07-02T12:21:14.033Z,25.44
2018-07-02T12:22:29.993Z,25.44
2018-07-02T12:23:46.882Z,25.62
2018-07-02T12:25:06.263Z,25.46
2018-07-02T12:26:24.957Z,25.4
2018-07-02T12:27:43.085Z,25.41
2018-07-02T12:29:01.369Z,25.39
2018-07-02T12:30:18.981Z,25.4
2018-07-02T12:31:35.894Z,25.52
2018-07-02T12:32:55.320Z,25.55
2018-07-02T12:34:15.179Z,25.51
2018-07-02T12:35:35.190Z,25.52
2018-07-02T12:36:51.904Z,25.7
2018-07-02T12:38:11.101Z,25.7
2018-07-02T12:39:29.556Z,25.73
2018-07-02T12:41:02.999Z,25.77
2018-07-02T12:42:20.182Z,25.73
2018-07-02T12:43:38.175Z,25.93
2018-07-02T12:44:58.101Z,25.96
2018-07-02T12:46:16.365Z,25.89
2018-07-02T12:47:38.581Z,26.01
2018-07-02T12:48:55.909Z,26.1
2018-07-02T12:50:14.696Z,26.08
2018-07-02T12:51:33.139Z,25.89
2018-07-02T12:52:48.628Z,25.96
2018-07-02T12:54:06.205Z,26.01
2018-07-02T12:55:23.386Z,25.99
2018-07-02T12:56:39.382Z,25.88
2018-07-02T12:57:55.532Z,25.86
2018-07-02T12:59:11.192Z,25.93
2018-07-02T13:00:29.829Z,26.04
2018-07-02T13:01:48.046Z,26.15
2018-07-02T13:03:04.069Z,26.1
2018-07-02T13:04:20.067Z,26.11
2018-07-02T13:05:40.650Z,26.13
2018-07-02T13:06:59.019Z,26.27
2018-07-02T13:08:16.486Z,26.19
2018-07-02T13:09:32.628Z,26.15
2018-07-02T13:10:48.108Z,26.1
2018-07-02T13:12:03.086Z,26.13
2018-07-02T13:13:20.098Z,26.04
2018-07-02T13:14:35.830Z,26.03
2018-07-02T13:15:50.903Z,26.22
2018-07-02T13:17:06.729Z,26.26
2018-07-02T13:18:23.783Z,26.41
2018-07-02T13:19:38.936Z,26.36
2018-07-02T13:20:56.954Z,26.36
2018-07-02T13:22:12.808Z,26.42
2018-07-02T13:23:27.786Z,26.49
2018-07-02T13:24:42.919Z,26.52
2018-07-02T13:25:59.320Z,26.42
2018-07-02T13:27:15.057Z,26.39
2018-07-02T13:28:30.348Z,26.39
2018-07-02T13:29:45.751Z,26.34
2018-07-02T13:31:01.843Z,26.26
2018-07-02T13:32:17.840Z,26.41
2018-07-02T13:33:34.640Z,26.36
2018-07-02T13:34:49.542Z,26.39
2018-07-02T13:36:04.453Z,26.49
2018-07-02T13:37:19.855Z,26.53
2018-07-02T13:38:34.758Z,26.55
2018-07-02T13:39:50.063Z,26.52
2018-07-02T13:41:04.664Z,26.49
2018-07-02T13:42:20.251Z,26.45
2018-07-02T13:43:34.867Z,26.45
2018-07-02T13:44:52.774Z,26.49
2018-07-02T13:46:12.836Z,26.52
2018-07-02T13:47:32.202Z,26.46
2018-07-02T13:48:53.924Z,26.49
2018-07-02T13:50:11.787Z,26.49
2018-07-02T13:51:31.561Z,26.49
2018-07-02T13:52:50.575Z,26.55
2018-07-02T13:54:06.871Z,26.48
2018-07-02T13:55:22.412Z,26.61
2018-07-02T13:56:39.544Z,26.74
2018-07-02T13:57:56.258Z,26.71
2018-07-02T13:59:13.465Z,26.68
2018-07-02T14:00:30.331Z,26.68
2018-07-02T14:01:45.799Z,26.74
2018-07-02T14:03:02.089Z,26.79
2018-07-02T14:04:19.762Z,26.68
2018-07-02T14:05:36.497Z,26.74
2018-07-02T14:06:53.194Z,26.79
2018-07-02T14:08:11.634Z,26.71
2018-07-02T14:09:27.983Z,26.79
2018-07-02T14:10:43.897Z,26.79
2018-07-02T14:12:02.037Z,26.81
2018-07-02T14:13:17.342Z,26.76
2018-07-02T14:14:33.747Z,26.66
2018-07-02T14:15:50.332Z,26.61
2018-07-02T14:17:06.697Z,26.67
2018-07-02T14:18:22.771Z,26.79
2018-07-02T14:19:39.519Z,26.76
2018-07-02T14:20:54.997Z,26.74
2018-07-02T14:22:10.784Z,26.79
2018-07-02T14:23:29.455Z,26.97
2018-07-02T14:24:47.403Z,26.92
2018-07-02T14:26:02.607Z,26.92
2018-07-02T14:27:18.929Z,26.85
2018-07-02T14:28:34.984Z,26.88
2018-07-02T14:29:51.990Z,26.82
2018-07-02T14:31:08.732Z,26.85
2018-07-02T14:32:23.620Z,26.83
2018-07-02T14:33:38.479Z,26.89
2018-07-02T14:34:53.392Z,26.85
2018-07-02T14:36:10.612Z,26.86
2018-07-02T14:37:26.070Z,26.78
2018-07-02T14:38:40.881Z,26.82
2018-07-02T14:39:57.461Z,26.97
2018-07-02T14:41:12.122Z,26.81
2018-07-02T14:42:27.748Z,26.86
2018-07-02T14:43:44.415Z,26.83
2018-07-02T14:44:59.684Z,26.86
2018-07-02T14:46:15.260Z,26.85
2018-07-02T14:47:32.132Z,26.98
2018-07-02T14:48:49.047Z,27.03
2018-07-02T14:50:04.686Z,27.08
2018-07-02T14:51:21.369Z,27.15
2018-07-02T14:52:37.441Z,27.22
2018-07-02T14:53:55.746Z,27.05
2018-07-02T14:55:11.880Z,27.08
2018-07-02T14:56:26.380Z,27.08
2018-07-02T14:57:43.064Z,27.1
2018-07-02T14:58:58.283Z,27
2018-07-02T15:00:12.863Z,27.07
2018-07-02T15:01:27.981Z,27.1
2018-07-02T15:02:44.926Z,27.22
2018-07-02T15:03:59.685Z,27.1
2018-07-02T15:05:15.185Z,27.13
2018-07-02T15:06:29.955Z,27.18
2018-07-02T15:07:46.071Z,27.19
2018-07-02T15:09:00.359Z,27.07
2018-07-02T15:10:15.333Z,27.11
2018-07-02T15:11:32.810Z,27.19
2018-07-02T15:12:49.357Z,27.23
2018-07-02T15:14:06.162Z,27.23
2018-07-02T15:15:23.788Z,27.18
2018-07-02T15:16:39.816Z,27.16
2018-07-02T15:17:56.876Z,27.15
2018-07-02T15:19:15.385Z,27.19
2018-07-02T15:20:31.272Z,27.22
2018-07-02T15:21:51.295Z,27.18
2018-07-02T15:23:08.294Z,27.15
2018-07-02T15:24:23.687Z,27.34
2018-07-02T15:25:38.267Z,27.34
2018-07-02T15:26:52.844Z,27.48
2018-07-02T15:28:09.577Z,27.52
2018-07-02T15:29:25.053Z,27.52
2018-07-02T15:30:39.803Z,27.57
2018-07-02T15:31:54.623Z,27.53
2018-07-02T15:33:11.197Z,27.61
2018-07-02T15:34:25.900Z,27.63
2018-07-02T15:35:40.981Z,27.72
2018-07-02T15:36:56.349Z,27.66
2018-07-02T15:38:10.703Z,27.58
2018-07-02T15:39:25.573Z,27.63
2018-07-02T15:40:40.886Z,27.64
2018-07-02T15:41:54.954Z,27.71
2018-07-02T15:43:10.515Z,27.64
2018-07-02T15:44:25.758Z,27.66
2018-07-02T15:45:41.005Z,27.72
2018-07-02T15:46:58.945Z,27.73
2018-07-02T15:48:14.804Z,27.61
2018-07-02T15:49:31.445Z,27.53
2018-07-02T15:51:17.693Z,27.55
2018-07-02T15:52:32.794Z,27.52
2018-07-02T15:53:48.383Z,27.57
2018-07-02T15:55:04.235Z,27.5
2018-07-02T15:56:21.978Z,27.66
2018-07-02T15:58:14.486Z,27.61
2018-07-02T15:59:28.918Z,27.53
2018-07-02T16:00:45.461Z,27.45
2018-07-02T16:02:03.461Z,27.53
2018-07-02T16:03:25.636Z,27.38
2018-07-02T16:04:43.940Z,27.47
2018-07-02T16:06:03.478Z,27.43
2018-07-02T16:07:59.502Z,27.55
2018-07-02T16:09:58.452Z,27.6
2018-07-02T16:11:20.230Z,27.53
2018-07-02T16:12:40.104Z,27.71
2018-07-02T16:14:00.130Z,27.58
2018-07-02T16:15:19.835Z,27.68
2018-07-02T16:16:38.967Z,27.61
2018-07-02T16:18:00.879Z,27.67
2018-07-02T16:19:21.061Z,27.73
2018-07-02T16:20:42.349Z,27.82
2018-07-02T16:22:29.732Z,27.64